sensor_id;sensor_type;location;lat;lon;timestamp;pressure;altitude;pressure_sealevel;temperature;humidity
62436;BME280;48480;50.252;18.848;2023-05-02T00:02:32;98608.34;;;12.07;47.50
62436;BME280;48480;50.252;18.848;2023-05-02T00:05:16;98608.59;;;12.05;47.78
62436;BME280;48480;50.252;18.848;2023-05-02T00:08:01;98604.67;;;12.05;48.09
62436;BME280;48480;50.252;18.848;2023-05-02T00:10:45;98602.12;;;12.01;48.09
62436;BME280;48480;50.252;18.848;2023-05-02T00:13:29;98600.02;;;12.01;48.35
62436;BME280;48480;50.252;18.848;2023-05-02T00:16:14;98600.27;;;12.01;48.39
62436;BME280;48480;50.252;18.848;2023-05-02T00:18:59;98600.77;;;11.98;48.72
62436;BME280;48480;50.252;18.848;2023-05-02T00:21:46;98596.58;;;11.96;48.88
62436;BME280;48480;50.252;18.848;2023-05-02T00:24:32;98598.31;;;11.96;49.10
62436;BME280;48480;50.252;18.848;2023-05-02T00:27:16;98596.27;;;11.98;49.26
62436;BME280;48480;50.252;18.848;2023-05-02T00:30:03;98596.14;;;11.98;49.51
62436;BME280;48480;50.252;18.848;2023-05-02T00:32:48;98597.12;;;11.99;49.65
62436;BME280;48480;50.252;18.848;2023-05-02T00:35:32;98595.60;;;12.01;49.92
62436;BME280;48480;50.252;18.848;2023-05-02T00:38:17;98597.36;;;12.02;50.06
62436;BME280;48480;50.252;18.848;2023-05-02T00:41:01;98594.68;;;12.00;50.04
62436;BME280;48480;50.252;18.848;2023-05-02T00:43:45;98592.41;;;11.97;49.97
62436;BME280;48480;50.252;18.848;2023-05-02T00:46:29;98589.30;;;11.92;49.94
62436;BME280;48480;50.252;18.848;2023-05-02T00:49:14;98590.93;;;11.88;50.27
62436;BME280;48480;50.252;18.848;2023-05-02T00:51:59;98587.44;;;11.81;50.53
62436;BME280;48480;50.252;18.848;2023-05-02T00:54:43;98588.89;;;11.76;50.89
62436;BME280;48480;50.252;18.848;2023-05-02T00:57:28;98585.14;;;11.71;50.99
62436;BME280;48480;50.252;18.848;2023-05-02T01:00:13;98587.40;;;11.66;51.20
62436;BME280;48480;50.252;18.848;2023-05-02T01:03:09;98585.33;;;11.62;51.21
62436;BME280;48480;50.252;18.848;2023-05-02T01:15:11;98590.05;;;11.49;51.97
62436;BME280;48480;50.252;18.848;2023-05-02T01:18:00;98590.01;;;11.46;52.14
62436;BME280;48480;50.252;18.848;2023-05-02T01:20:47;98589.13;;;11.45;52.17
62436;BME280;48480;50.252;18.848;2023-05-02T01:23:41;98593.46;;;11.44;52.48
62436;BME280;48480;50.252;18.848;2023-05-02T01:26:41;98592.64;;;11.41;52.58
62436;BME280;48480;50.252;18.848;2023-05-02T01:29:30;98593.75;;;11.42;52.67
62436;BME280;48480;50.252;18.848;2023-05-02T01:32:15;98589.30;;;11.44;52.73
62436;BME280;48480;50.252;18.848;2023-05-02T01:35:03;98586.23;;;11.46;52.72
62436;BME280;48480;50.252;18.848;2023-05-02T01:37:50;98590.26;;;11.45;52.89
62436;BME280;48480;50.252;18.848;2023-05-02T01:40:37;98585.52;;;11.45;52.96
62436;BME280;48480;50.252;18.848;2023-05-02T01:43:23;98584.08;;;11.44;53.06
62436;BME280;48480;50.252;18.848;2023-05-02T01:46:09;98578.74;;;11.41;53.25
62436;BME280;48480;50.252;18.848;2023-05-02T01:48:56;98583.07;;;11.39;53.42
62436;BME280;48480;50.252;18.848;2023-05-02T01:51:47;98579.88;;;11.34;53.44
62436;BME280;48480;50.252;18.848;2023-05-02T01:54:33;98582.21;;;11.35;53.68
62436;BME280;48480;50.252;18.848;2023-05-02T01:57:18;98579.84;;;11.33;53.68
62436;BME280;48480;50.252;18.848;2023-05-02T02:00:03;98577.52;;;11.30;53.65
62436;BME280;48480;50.252;18.848;2023-05-02T02:02:56;98580.39;;;11.30;53.83
62436;BME280;48480;50.252;18.848;2023-05-02T02:05:42;98581.81;;;11.29;53.93
62436;BME280;48480;50.252;18.848;2023-05-02T02:08:26;98583.14;;;11.29;54.15
62436;BME280;48480;50.252;18.848;2023-05-02T02:11:12;98577.64;;;11.26;54.19
62436;BME280;48480;50.252;18.848;2023-05-02T02:14:05;98581.18;;;11.28;54.20
62436;BME280;48480;50.252;18.848;2023-05-02T02:16:54;98574.58;;;11.28;54.34
62436;BME280;48480;50.252;18.848;2023-05-02T02:19:41;98576.41;;;11.28;54.42
62436;BME280;48480;50.252;18.848;2023-05-02T02:22:27;98577.39;;;11.29;54.41
62436;BME280;48480;50.252;18.848;2023-05-02T02:25:15;98576.09;;;11.31;54.38
62436;BME280;48480;50.252;18.848;2023-05-02T02:28:01;98578.17;;;11.34;54.43
62436;BME280;48480;50.252;18.848;2023-05-02T02:30:45;98575.65;;;11.34;54.33
62436;BME280;48480;50.252;18.848;2023-05-02T02:33:29;98579.96;;;11.36;54.34
62436;BME280;48480;50.252;18.848;2023-05-02T02:36:22;98582.49;;;11.38;54.41
62436;BME280;48480;50.252;18.848;2023-05-02T02:48:35;98579.28;;;11.41;54.20
62436;BME280;48480;50.252;18.848;2023-05-02T02:51:30;98578.33;;;11.42;53.98
62436;BME280;48480;50.252;18.848;2023-05-02T02:54:21;98582.37;;;11.43;53.92
62436;BME280;48480;50.252;18.848;2023-05-02T02:57:16;98589.67;;;11.45;53.73
62436;BME280;48480;50.252;18.848;2023-05-02T03:00:09;98587.23;;;11.46;53.64
62436;BME280;48480;50.252;18.848;2023-05-02T03:02:54;98589.59;;;11.46;53.62
62436;BME280;48480;50.252;18.848;2023-05-02T03:05:41;98589.51;;;11.45;53.61
62436;BME280;48480;50.252;18.848;2023-05-02T03:08:27;98589.52;;;11.42;53.62
62436;BME280;48480;50.252;18.848;2023-05-02T03:11:11;98590.23;;;11.43;53.37
62436;BME280;48480;50.252;18.848;2023-05-02T03:13:55;98591.41;;;11.43;53.66
62436;BME280;48480;50.252;18.848;2023-05-02T03:16:39;98587.33;;;11.43;53.43
62436;BME280;48480;50.252;18.848;2023-05-02T03:19:24;98586.75;;;11.42;53.45
62436;BME280;48480;50.252;18.848;2023-05-02T03:22:08;98589.67;;;11.40;53.68
62436;BME280;48480;50.252;18.848;2023-05-02T03:24:53;98586.11;;;11.38;53.62
62436;BME280;48480;50.252;18.848;2023-05-02T03:27:37;98585.06;;;11.35;53.72
62436;BME280;48480;50.252;18.848;2023-05-02T03:30:21;98586.40;;;11.28;53.78
62436;BME280;48480;50.252;18.848;2023-05-02T03:33:05;98592.89;;;11.24;53.80
62436;BME280;48480;50.252;18.848;2023-05-02T03:35:51;98591.73;;;11.22;53.90
62436;BME280;48480;50.252;18.848;2023-05-02T03:38:35;98589.58;;;11.21;54.02
62436;BME280;48480;50.252;18.848;2023-05-02T03:41:20;98593.47;;;11.20;54.06
62436;BME280;48480;50.252;18.848;2023-05-02T03:44:04;98593.41;;;11.19;54.21
62436;BME280;48480;50.252;18.848;2023-05-02T03:46:49;98597.42;;;11.15;54.27
62436;BME280;48480;50.252;18.848;2023-05-02T03:49:33;98596.09;;;11.15;54.28
62436;BME280;48480;50.252;18.848;2023-05-02T03:52:17;98597.60;;;11.16;54.23
62436;BME280;48480;50.252;18.848;2023-05-02T03:55:01;98603.17;;;11.19;54.09
62436;BME280;48480;50.252;18.848;2023-05-02T03:57:46;98604.12;;;11.21;53.81
62436;BME280;48480;50.252;18.848;2023-05-02T04:00:31;98605.16;;;11.22;53.88
62436;BME280;48480;50.252;18.848;2023-05-02T04:03:15;98604.96;;;11.23;53.84
62436;BME280;48480;50.252;18.848;2023-05-02T04:05:59;98603.23;;;11.27;53.58
62436;BME280;48480;50.252;18.848;2023-05-02T04:08:43;98603.64;;;11.33;53.63
62436;BME280;48480;50.252;18.848;2023-05-02T04:11:27;98604.94;;;11.40;53.48
62436;BME280;48480;50.252;18.848;2023-05-02T04:14:11;98604.48;;;11.46;53.33
62436;BME280;48480;50.252;18.848;2023-05-02T04:16:55;98605.09;;;11.52;53.12
62436;BME280;48480;50.252;18.848;2023-05-02T04:19:40;98607.39;;;11.59;52.75
62436;BME280;48480;50.252;18.848;2023-05-02T04:22:24;98607.48;;;11.65;52.46
62436;BME280;48480;50.252;18.848;2023-05-02T04:25:08;98611.32;;;11.73;52.34
62436;BME280;48480;50.252;18.848;2023-05-02T04:27:52;98614.47;;;11.81;52.25
62436;BME280;48480;50.252;18.848;2023-05-02T04:30:37;98617.31;;;11.90;52.09
62436;BME280;48480;50.252;18.848;2023-05-02T04:33:21;98620.98;;;11.97;51.72
62436;BME280;48480;50.252;18.848;2023-05-02T04:36:09;98622.83;;;12.02;51.68
62436;BME280;48480;50.252;18.848;2023-05-02T04:38:54;98627.73;;;12.12;51.38
62436;BME280;48480;50.252;18.848;2023-05-02T04:41:38;98628.75;;;12.20;51.22
62436;BME280;48480;50.252;18.848;2023-05-02T04:44:22;98627.47;;;12.26;50.96
62436;BME280;48480;50.252;18.848;2023-05-02T04:47:07;98621.64;;;12.30;50.68
62436;BME280;48480;50.252;18.848;2023-05-02T04:49:52;98627.42;;;12.38;50.32
62436;BME280;48480;50.252;18.848;2023-05-02T04:52:38;98626.03;;;12.45;50.12
62436;BME280;48480;50.252;18.848;2023-05-02T04:55:22;98626.25;;;12.55;49.94
62436;BME280;48480;50.252;18.848;2023-05-02T04:58:06;98625.02;;;12.65;49.73
62436;BME280;48480;50.252;18.848;2023-05-02T05:00:50;98631.05;;;12.75;49.25
62436;BME280;48480;50.252;18.848;2023-05-02T05:03:34;98630.06;;;12.86;49.13
62436;BME280;48480;50.252;18.848;2023-05-02T05:06:18;98631.00;;;12.96;49.05
62436;BME280;48480;50.252;18.848;2023-05-02T05:09:02;98633.33;;;13.09;48.77
62436;BME280;48480;50.252;18.848;2023-05-02T05:11:46;98639.73;;;13.21;48.75
62436;BME280;48480;50.252;18.848;2023-05-02T05:14:30;98644.30;;;13.39;48.51
62436;BME280;48480;50.252;18.848;2023-05-02T05:17:14;98647.61;;;13.58;48.28
62436;BME280;48480;50.252;18.848;2023-05-02T05:19:58;98649.10;;;13.80;47.94
62436;BME280;48480;50.252;18.848;2023-05-02T05:22:42;98646.98;;;14.02;47.66
62436;BME280;48480;50.252;18.848;2023-05-02T05:25:27;98648.60;;;14.25;47.42
62436;BME280;48480;50.252;18.848;2023-05-02T05:28:11;98650.87;;;14.59;46.70
62436;BME280;48480;50.252;18.848;2023-05-02T05:30:55;98650.09;;;15.13;45.66
62436;BME280;48480;50.252;18.848;2023-05-02T05:33:40;98650.48;;;15.57;44.76
62436;BME280;48480;50.252;18.848;2023-05-02T05:36:24;98650.27;;;16.02;44.21
62436;BME280;48480;50.252;18.848;2023-05-02T05:39:09;98646.59;;;16.62;43.24
62436;BME280;48480;50.252;18.848;2023-05-02T05:41:54;98640.80;;;17.17;42.15
62436;BME280;48480;50.252;18.848;2023-05-02T05:44:38;98645.46;;;17.78;41.25
62436;BME280;48480;50.252;18.848;2023-05-02T05:47:22;98645.63;;;18.43;40.16
62436;BME280;48480;50.252;18.848;2023-05-02T05:50:07;98642.73;;;19.03;39.04
62436;BME280;48480;50.252;18.848;2023-05-02T05:52:51;98645.62;;;19.50;37.50
62436;BME280;48480;50.252;18.848;2023-05-02T05:55:40;98630.39;;;19.83;36.73
62436;BME280;48480;50.252;18.848;2023-05-02T05:58:25;98646.65;;;20.31;35.86
62436;BME280;48480;50.252;18.848;2023-05-02T06:01:09;98614.15;;;20.43;35.30
62436;BME280;48480;50.252;18.848;2023-05-02T06:03:54;98645.61;;;20.96;34.50
62436;BME280;48480;50.252;18.848;2023-05-02T06:06:42;98651.41;;;21.31;34.27
62436;BME280;48480;50.252;18.848;2023-05-02T06:09:26;98653.91;;;21.58;33.40
62436;BME280;48480;50.252;18.848;2023-05-02T06:12:10;98660.19;;;21.70;33.33
62436;BME280;48480;50.252;18.848;2023-05-02T06:14:54;98663.23;;;21.72;33.21
62436;BME280;48480;50.252;18.848;2023-05-02T06:17:38;98658.98;;;21.65;33.38
62436;BME280;48480;50.252;18.848;2023-05-02T06:20:23;98671.56;;;21.69;33.33
62436;BME280;48480;50.252;18.848;2023-05-02T06:23:07;98674.28;;;21.66;33.31
62436;BME280;48480;50.252;18.848;2023-05-02T06:25:52;98677.71;;;21.48;33.56
62436;BME280;48480;50.252;18.848;2023-05-02T06:28:36;98680.48;;;21.31;33.76
62436;BME280;48480;50.252;18.848;2023-05-02T06:31:20;98683.39;;;21.21;34.05
62436;BME280;48480;50.252;18.848;2023-05-02T06:34:04;98687.02;;;21.04;34.17
62436;BME280;48480;50.252;18.848;2023-05-02T06:36:53;98688.85;;;20.97;34.56
62436;BME280;48480;50.252;18.848;2023-05-02T06:39:38;98692.02;;;21.03;34.65
62436;BME280;48480;50.252;18.848;2023-05-02T06:42:22;98694.32;;;21.10;34.42
62436;BME280;48480;50.252;18.848;2023-05-02T06:45:06;98688.40;;;21.12;34.57
62436;BME280;48480;50.252;18.848;2023-05-02T06:47:51;98699.41;;;21.30;34.35
62436;BME280;48480;50.252;18.848;2023-05-02T06:50:35;98701.08;;;21.33;34.38
62436;BME280;48480;50.252;18.848;2023-05-02T06:53:19;98703.02;;;21.43;34.52
62436;BME280;48480;50.252;18.848;2023-05-02T06:56:04;98707.89;;;21.65;34.35
62436;BME280;48480;50.252;18.848;2023-05-02T06:58:50;98710.55;;;21.87;33.85
62436;BME280;48480;50.252;18.848;2023-05-02T07:01:34;98706.89;;;22.13;33.45
62436;BME280;48480;50.252;18.848;2023-05-02T07:04:18;98709.70;;;22.35;32.88
62436;BME280;48480;50.252;18.848;2023-05-02T07:07:03;98714.32;;;22.55;32.61
62436;BME280;48480;50.252;18.848;2023-05-02T07:09:47;98716.60;;;22.65;32.03
62436;BME280;48480;50.252;18.848;2023-05-02T07:12:33;98721.45;;;22.68;31.88
62436;BME280;48480;50.252;18.848;2023-05-02T07:15:18;98721.27;;;22.79;31.62
62436;BME280;48480;50.252;18.848;2023-05-02T07:18:05;98726.90;;;22.93;31.62
62436;BME280;48480;50.252;18.848;2023-05-02T07:20:49;98726.29;;;23.11;31.29
62436;BME280;48480;50.252;18.848;2023-05-02T07:23:42;98729.73;;;23.19;31.15
62436;BME280;48480;50.252;18.848;2023-05-02T07:26:45;98731.73;;;23.29;30.79
62436;BME280;48480;50.252;18.848;2023-05-02T07:29:30;98728.39;;;23.22;30.09
62436;BME280;48480;50.252;18.848;2023-05-02T07:32:20;98743.80;;;23.05;29.50
62436;BME280;48480;50.252;18.848;2023-05-02T07:35:27;98745.50;;;22.70;29.85
62436;BME280;48480;50.252;18.848;2023-05-02T07:38:11;98722.31;;;22.23;29.97
62436;BME280;48480;50.252;18.848;2023-05-02T07:40:58;98751.94;;;22.17;30.69
62436;BME280;48480;50.252;18.848;2023-05-02T07:43:42;98752.14;;;22.09;31.40
62436;BME280;48480;50.252;18.848;2023-05-02T07:46:36;98754.79;;;22.07;31.38
62436;BME280;48480;50.252;18.848;2023-05-02T07:49:21;98754.73;;;22.14;31.35
62436;BME280;48480;50.252;18.848;2023-05-02T07:52:06;98754.86;;;22.28;31.31
62436;BME280;48480;50.252;18.848;2023-05-02T07:54:52;98756.46;;;22.39;31.27
62436;BME280;48480;50.252;18.848;2023-05-02T07:57:39;98754.46;;;22.60;31.00
62436;BME280;48480;50.252;18.848;2023-05-02T08:00:27;98753.56;;;23.07;31.24
62436;BME280;48480;50.252;18.848;2023-05-02T08:03:18;98749.95;;;23.66;30.46
62436;BME280;48480;50.252;18.848;2023-05-02T08:06:16;98755.23;;;23.87;29.60
62436;BME280;48480;50.252;18.848;2023-05-02T08:09:01;98762.17;;;23.92;29.26
62436;BME280;48480;50.252;18.848;2023-05-02T08:11:46;98765.34;;;23.73;29.56
62436;BME280;48480;50.252;18.848;2023-05-02T08:14:31;98769.31;;;23.49;29.92
62436;BME280;48480;50.252;18.848;2023-05-02T08:17:16;98769.24;;;23.45;29.78
62436;BME280;48480;50.252;18.848;2023-05-02T08:20:00;98768.67;;;23.18;30.42
62436;BME280;48480;50.252;18.848;2023-05-02T08:23:07;98769.05;;;23.06;30.52
62436;BME280;48480;50.252;18.848;2023-05-02T08:25:57;98770.98;;;22.99;30.81
62436;BME280;48480;50.252;18.848;2023-05-02T08:28:47;98764.83;;;23.08;30.57
62436;BME280;48480;50.252;18.848;2023-05-02T08:31:31;98769.49;;;23.37;30.71
62436;BME280;48480;50.252;18.848;2023-05-02T08:34:17;98765.33;;;23.77;30.61
62436;BME280;48480;50.252;18.848;2023-05-02T08:37:10;98767.77;;;24.31;30.27
62436;BME280;48480;50.252;18.848;2023-05-02T08:40:03;98767.66;;;24.69;29.68
62436;BME280;48480;50.252;18.848;2023-05-02T08:42:49;98768.02;;;24.92;29.62
62436;BME280;48480;50.252;18.848;2023-05-02T08:45:43;98767.81;;;25.08;29.50
62436;BME280;48480;50.252;18.848;2023-05-02T08:48:38;98770.98;;;25.06;29.16
62436;BME280;48480;50.252;18.848;2023-05-02T08:51:23;98773.30;;;25.08;28.99
62436;BME280;48480;50.252;18.848;2023-05-02T08:54:08;98772.85;;;25.05;28.97
62436;BME280;48480;50.252;18.848;2023-05-02T08:57:00;98769.39;;;24.88;29.21
62436;BME280;48480;50.252;18.848;2023-05-02T08:59:50;98765.41;;;24.75;29.87
62436;BME280;48480;50.252;18.848;2023-05-02T09:05:53;98765.52;;;24.59;30.16
62436;BME280;48480;50.252;18.848;2023-05-02T09:08:44;98764.09;;;24.32;30.60
62436;BME280;48480;50.252;18.848;2023-05-02T09:11:29;98764.80;;;24.00;31.02
62436;BME280;48480;50.252;18.848;2023-05-02T09:14:14;98765.17;;;23.83;31.49
62436;BME280;48480;50.252;18.848;2023-05-02T09:16:59;98766.83;;;23.73;31.88
62436;BME280;48480;50.252;18.848;2023-05-02T09:19:44;98771.80;;;23.60;32.16
62436;BME280;48480;50.252;18.848;2023-05-02T09:22:29;98772.98;;;23.54;32.16
62436;BME280;48480;50.252;18.848;2023-05-02T09:25:14;98769.27;;;23.33;32.42
62436;BME280;48480;50.252;18.848;2023-05-02T09:27:59;98774.98;;;23.08;32.96
62436;BME280;48480;50.252;18.848;2023-05-02T09:30:45;98773.71;;;22.81;33.43
62436;BME280;48480;50.252;18.848;2023-05-02T09:33:32;98783.55;;;22.71;33.76
62436;BME280;48480;50.252;18.848;2023-05-02T09:36:27;98782.98;;;22.53;34.31
62436;BME280;48480;50.252;18.848;2023-05-02T09:39:26;98786.56;;;22.54;34.60
62436;BME280;48480;50.252;18.848;2023-05-02T09:42:29;98786.60;;;22.38;34.81
62436;BME280;48480;50.252;18.848;2023-05-02T09:45:24;98792.59;;;22.30;35.88
62436;BME280;48480;50.252;18.848;2023-05-02T09:48:11;98789.05;;;22.24;35.88
62436;BME280;48480;50.252;18.848;2023-05-02T09:51:18;98792.39;;;22.22;35.99
62436;BME280;48480;50.252;18.848;2023-05-02T09:57:42;98790.96;;;21.83;36.73
62436;BME280;48480;50.252;18.848;2023-05-02T10:01:32;98800.01;;;21.67;37.13
62436;BME280;48480;50.252;18.848;2023-05-02T10:04:32;98803.59;;;21.53;37.42
62436;BME280;48480;50.252;18.848;2023-05-02T10:07:36;98802.61;;;21.38;37.71
62436;BME280;48480;50.252;18.848;2023-05-02T10:10:23;98811.13;;;21.30;38.05
62436;BME280;48480;50.252;18.848;2023-05-02T10:13:15;98815.14;;;21.16;38.43
62436;BME280;48480;50.252;18.848;2023-05-02T10:16:13;98809.33;;;21.00;38.61
62436;BME280;48480;50.252;18.848;2023-05-02T10:19:17;98814.45;;;20.82;38.91
62436;BME280;48480;50.252;18.848;2023-05-02T10:22:21;98812.59;;;20.74;38.83
62436;BME280;48480;50.252;18.848;2023-05-02T10:25:18;98814.04;;;20.71;39.05
62436;BME280;48480;50.252;18.848;2023-05-02T10:28:32;98819.70;;;20.70;39.48
62436;BME280;48480;50.252;18.848;2023-05-02T10:31:21;98827.17;;;20.69;39.75
62436;BME280;48480;50.252;18.848;2023-05-02T10:34:10;98826.12;;;20.65;39.86
62436;BME280;48480;50.252;18.848;2023-05-02T10:37:10;98823.02;;;20.54;39.99
62436;BME280;48480;50.252;18.848;2023-05-02T10:40:09;98833.52;;;20.51;40.38
62436;BME280;48480;50.252;18.848;2023-05-02T10:43:03;98833.15;;;20.47;40.22
62436;BME280;48480;50.252;18.848;2023-05-02T10:45:58;98834.48;;;20.34;40.38
62436;BME280;48480;50.252;18.848;2023-05-02T10:49:05;98836.43;;;20.28;41.00
62436;BME280;48480;50.252;18.848;2023-05-02T10:52:27;98833.52;;;20.32;41.27
62436;BME280;48480;50.252;18.848;2023-05-02T10:55:23;98836.89;;;20.34;41.18
62436;BME280;48480;50.252;18.848;2023-05-02T11:00:51;98833.76;;;20.33;41.62
62436;BME280;48480;50.252;18.848;2023-05-02T11:04:04;98834.98;;;20.37;41.73
62436;BME280;48480;50.252;18.848;2023-05-02T11:13:58;98847.44;;;20.44;41.60
62436;BME280;48480;50.252;18.848;2023-05-02T11:22:32;98853.70;;;20.15;42.40
62436;BME280;48480;50.252;18.848;2023-05-02T11:25:29;98850.16;;;20.00;42.85
62436;BME280;48480;50.252;18.848;2023-05-02T11:28:43;98856.68;;;19.93;43.11
62436;BME280;48480;50.252;18.848;2023-05-02T11:34:15;98861.30;;;20.07;43.57
62436;BME280;48480;50.252;18.848;2023-05-02T11:36:59;98864.96;;;20.13;43.46
62436;BME280;48480;50.252;18.848;2023-05-02T11:39:44;98863.98;;;20.23;43.28
62436;BME280;48480;50.252;18.848;2023-05-02T11:42:30;98867.12;;;20.24;43.26
62436;BME280;48480;50.252;18.848;2023-05-02T11:45:15;98872.55;;;20.29;43.15
62436;BME280;48480;50.252;18.848;2023-05-02T11:48:02;98877.96;;;20.31;42.95
62436;BME280;48480;50.252;18.848;2023-05-02T11:50:50;98881.67;;;20.37;42.98
62436;BME280;48480;50.252;18.848;2023-05-02T11:53:42;98881.02;;;20.47;42.87
62436;BME280;48480;50.252;18.848;2023-05-02T11:56:27;98883.75;;;20.54;42.50
62436;BME280;48480;50.252;18.848;2023-05-02T11:59:11;98887.49;;;20.49;42.71
62436;BME280;48480;50.252;18.848;2023-05-02T12:01:56;98880.48;;;20.46;42.63
62436;BME280;48480;50.252;18.848;2023-05-02T12:04:44;98890.89;;;20.51;42.20
62436;BME280;48480;50.252;18.848;2023-05-02T12:07:46;98889.86;;;20.37;42.21
62436;BME280;48480;50.252;18.848;2023-05-02T12:10:37;98893.09;;;20.34;42.78
62436;BME280;48480;50.252;18.848;2023-05-02T12:13:23;98897.13;;;20.39;42.84
62436;BME280;48480;50.252;18.848;2023-05-02T12:16:07;98897.05;;;20.46;43.08
62436;BME280;48480;50.252;18.848;2023-05-02T12:18:51;98891.45;;;20.48;43.26
62436;BME280;48480;50.252;18.848;2023-05-02T12:21:35;98890.38;;;20.48;43.56
62436;BME280;48480;50.252;18.848;2023-05-02T12:24:20;98897.59;;;20.52;43.56
62436;BME280;48480;50.252;18.848;2023-05-02T12:27:15;98900.06;;;20.51;43.15
62436;BME280;48480;50.252;18.848;2023-05-02T12:29:59;98902.78;;;20.44;43.22
62436;BME280;48480;50.252;18.848;2023-05-02T12:32:45;98902.05;;;20.30;43.19
62436;BME280;48480;50.252;18.848;2023-05-02T12:35:30;98902.17;;;20.26;43.55
62436;BME280;48480;50.252;18.848;2023-05-02T12:38:16;98906.42;;;20.31;43.74
62436;BME280;48480;50.252;18.848;2023-05-02T12:41:01;98908.76;;;20.36;43.33
62436;BME280;48480;50.252;18.848;2023-05-02T12:43:48;98913.40;;;20.35;42.86
62436;BME280;48480;50.252;18.848;2023-05-02T12:46:32;98913.00;;;20.28;42.70
62436;BME280;48480;50.252;18.848;2023-05-02T12:49:19;98914.15;;;20.20;41.98
62436;BME280;48480;50.252;18.848;2023-05-02T12:51:56;98913.73;;;20.13;42.35
62436;BME280;48480;50.252;18.848;2023-05-02T12:54:41;98922.05;;;20.06;41.81
62436;BME280;48480;50.252;18.848;2023-05-02T12:57:26;98918.28;;;19.93;42.34
62436;BME280;48480;50.252;18.848;2023-05-02T13:00:11;98920.02;;;19.84;43.20
62436;BME280;48480;50.252;18.848;2023-05-02T13:02:55;98918.27;;;19.77;42.81
62436;BME280;48480;50.252;18.848;2023-05-02T13:05:39;98915.61;;;19.72;42.97
62436;BME280;48480;50.252;18.848;2023-05-02T13:08:24;98914.53;;;19.72;43.31
62436;BME280;48480;50.252;18.848;2023-05-02T13:11:08;98912.04;;;19.72;43.45
62436;BME280;48480;50.252;18.848;2023-05-02T13:13:52;98911.88;;;19.75;42.84
62436;BME280;48480;50.252;18.848;2023-05-02T13:16:36;98909.14;;;19.70;42.35
62436;BME280;48480;50.252;18.848;2023-05-02T13:19:21;98912.80;;;19.67;42.51
62436;BME280;48480;50.252;18.848;2023-05-02T13:22:05;98915.53;;;19.58;42.69
62436;BME280;48480;50.252;18.848;2023-05-02T13:24:50;98911.20;;;19.59;42.53
62436;BME280;48480;50.252;18.848;2023-05-02T13:27:34;98912.55;;;19.61;42.47
62436;BME280;48480;50.252;18.848;2023-05-02T13:30:18;98916.00;;;19.68;42.09
62436;BME280;48480;50.252;18.848;2023-05-02T13:33:02;98918.67;;;19.73;41.80
62436;BME280;48480;50.252;18.848;2023-05-02T13:35:47;98916.67;;;19.65;41.46
62436;BME280;48480;50.252;18.848;2023-05-02T13:38:30;98916.96;;;19.50;41.96
62436;BME280;48480;50.252;18.848;2023-05-02T13:41:24;98922.17;;;19.41;41.53
62436;BME280;48480;50.252;18.848;2023-05-02T13:44:08;98922.77;;;19.30;41.63
62436;BME280;48480;50.252;18.848;2023-05-02T13:46:53;98922.46;;;19.25;42.03
62436;BME280;48480;50.252;18.848;2023-05-02T13:49:37;98923.50;;;19.19;42.40
62436;BME280;48480;50.252;18.848;2023-05-02T13:52:20;98932.55;;;19.13;42.78
62436;BME280;48480;50.252;18.848;2023-05-02T13:55:05;98937.81;;;19.03;42.86
62436;BME280;48480;50.252;18.848;2023-05-02T13:57:49;98936.74;;;18.92;42.49
62436;BME280;48480;50.252;18.848;2023-05-02T14:00:33;98940.97;;;18.82;41.89
62436;BME280;48480;50.252;18.848;2023-05-02T14:03:19;98942.58;;;18.81;41.65
62436;BME280;48480;50.252;18.848;2023-05-02T14:06:06;98943.90;;;18.88;41.08
62436;BME280;48480;50.252;18.848;2023-05-02T14:09:00;98944.27;;;18.95;40.63
62436;BME280;48480;50.252;18.848;2023-05-02T14:11:46;98937.07;;;19.00;40.16
62436;BME280;48480;50.252;18.848;2023-05-02T14:14:36;98929.96;;;19.15;40.17
62436;BME280;48480;50.252;18.848;2023-05-02T14:17:24;98932.30;;;19.38;40.06
62436;BME280;48480;50.252;18.848;2023-05-02T14:22:48;98932.79;;;19.79;38.94
62436;BME280;48480;50.252;18.848;2023-05-02T14:25:35;98933.46;;;19.89;38.87
62436;BME280;48480;50.252;18.848;2023-05-02T14:28:19;98940.88;;;19.96;38.17
62436;BME280;48480;50.252;18.848;2023-05-02T14:31:04;98945.63;;;20.00;38.30
62436;BME280;48480;50.252;18.848;2023-05-02T14:33:57;98943.22;;;20.07;38.34
62436;BME280;48480;50.252;18.848;2023-05-02T14:36:41;98941.59;;;20.13;38.43
62436;BME280;48480;50.252;18.848;2023-05-02T14:39:31;98945.60;;;20.10;38.23
62436;BME280;48480;50.252;18.848;2023-05-02T14:42:15;98948.95;;;20.00;38.10
62436;BME280;48480;50.252;18.848;2023-05-02T14:44:58;98963.17;;;19.89;38.22
62436;BME280;48480;50.252;18.848;2023-05-02T14:47:45;98972.92;;;19.80;38.52
62436;BME280;48480;50.252;18.848;2023-05-02T14:50:30;98981.48;;;19.72;38.28
62436;BME280;48480;50.252;18.848;2023-05-02T14:53:27;98986.29;;;19.59;38.67
62436;BME280;48480;50.252;18.848;2023-05-02T14:58:49;98986.44;;;19.36;39.70
62436;BME280;48480;50.252;18.848;2023-05-02T15:01:33;98977.56;;;19.26;40.95
62436;BME280;48480;50.252;18.848;2023-05-02T15:04:17;98968.44;;;19.20;41.97
62436;BME280;48480;50.252;18.848;2023-05-02T15:09:52;98976.37;;;19.09;45.47
62436;BME280;48480;50.252;18.848;2023-05-02T15:12:37;98983.25;;;19.03;45.47
62436;BME280;48480;50.252;18.848;2023-05-02T15:15:24;98986.21;;;18.96;45.96
62436;BME280;48480;50.252;18.848;2023-05-02T15:18:08;98986.13;;;18.86;46.24
62436;BME280;48480;50.252;18.848;2023-05-02T15:23:27;98998.16;;;18.66;46.83
62436;BME280;48480;50.252;18.848;2023-05-02T15:26:12;98995.64;;;18.56;46.63
62436;BME280;48480;50.252;18.848;2023-05-02T15:29:14;99005.98;;;18.47;46.34
62436;BME280;48480;50.252;18.848;2023-05-02T15:31:58;99019.45;;;18.35;46.43